createdAt,value
2018-02-05T00:02:18.498Z,19.90
2018-02-05T00:07:33.084Z,16.23
2018-02-05T00:10:02.086Z,16.73
2018-02-05T00:12:30.944Z,18.33
2018-02-05T00:15:00.483Z,19.07
2018-02-05T00:17:29.376Z,14.33
2018-02-05T00:19:58.234Z,18.03
2018-02-05T00:22:27.080Z,19.27
2018-02-05T00:24:56.006Z,19.97
2018-02-05T00:27:25.923Z,18.70
2018-02-05T00:29:55.332Z,19.90
2018-02-05T00:32:24.189Z,16.63
2018-02-05T00:34:53.034Z,17.83
2018-02-05T00:37:21.880Z,19.47
2018-02-05T00:39:51.596Z,17.77
2018-02-05T00:42:21.118Z,17.50
2018-02-05T00:44:50.015Z,18.20
2018-02-05T00:47:18.912Z,20.97
2018-02-05T00:49:47.779Z,17.60
2018-02-05T00:52:16.635Z,18.93
2018-02-05T00:54:45.473Z,19.70
2018-02-05T00:57:14.344Z,19.47
2018-02-05T00:59:43.210Z,19.10
2018-02-05T01:02:12.044Z,20.77
2018-02-05T01:04:40.880Z,21.73
2018-02-05T01:07:09.769Z,26.20
2018-02-05T01:09:39.519Z,23.57
2018-02-05T01:12:08.356Z,23.53
2018-02-05T01:14:37.231Z,20.50
2018-02-05T01:17:06.078Z,22.53
2018-02-05T01:19:34.919Z,25.77
2018-02-05T01:22:03.805Z,21.73
2018-02-05T01:24:34.137Z,21.47
2018-02-05T01:27:03.076Z,22.47
2018-02-05T01:29:31.999Z,22.17
2018-02-05T01:32:00.850Z,24.27
2018-02-05T01:34:29.676Z,25.87
2018-02-05T01:36:58.552Z,24.73
2018-02-05T01:39:27.384Z,23.70
2018-02-05T01:41:56.244Z,25.60
2018-02-05T01:44:25.111Z,24.17
2018-02-05T01:46:53.992Z,24.00
2018-02-05T01:49:22.878Z,20.57
2018-02-05T01:51:51.721Z,22.53
2018-02-05T01:54:20.556Z,25.00
2018-02-05T01:56:49.431Z,24.63
2018-02-05T01:59:18.932Z,24.97
2018-02-05T02:01:47.788Z,24.37
2018-02-05T02:04:16.646Z,21.33
2018-02-05T02:06:45.526Z,25.37
2018-02-05T02:09:14.416Z,20.83
2018-02-05T02:11:43.272Z,24.03
2018-02-05T02:14:12.160Z,23.53
2018-02-05T02:16:41.044Z,24.83
2018-02-05T02:19:10.423Z,23.77
2018-02-05T02:21:39.250Z,27.07
2018-02-05T02:24:08.110Z,23.40
2018-02-05T02:26:37.006Z,21.70
2018-02-05T02:29:05.938Z,25.70
2018-02-05T02:31:34.826Z,20.30
2018-02-05T02:34:03.721Z,23.10
2018-02-05T02:36:32.554Z,22.73
2018-02-05T02:39:01.394Z,24.73
2018-02-05T02:41:30.294Z,23.67
2018-02-05T02:43:59.156Z,24.00
2018-02-05T02:46:28.061Z,23.57
2018-02-05T02:48:57.422Z,24.13
2018-02-05T02:51:26.262Z,21.47
2018-02-05T02:53:56.910Z,23.50
2018-02-05T02:56:25.803Z,23.97
2018-02-05T02:58:54.654Z,25.80
2018-02-05T03:01:23.482Z,23.47
2018-02-05T03:03:53.154Z,16.20
2018-02-05T03:06:22.038Z,20.93
2018-02-05T03:08:50.906Z,19.40
2018-02-05T03:11:19.798Z,21.20
2018-02-05T03:13:48.640Z,16.23
2018-02-05T03:16:17.480Z,21.20
2018-02-05T03:18:46.366Z,24.70
2018-02-05T03:21:15.200Z,25.23
2018-02-05T03:23:44.352Z,27.33
2018-02-05T03:26:13.679Z,25.57
2018-02-05T03:28:42.830Z,26.97
2018-02-05T03:31:11.746Z,26.87
2018-02-05T03:33:40.612Z,27.97
2018-02-05T03:36:09.490Z,24.40
2018-02-05T03:38:38.336Z,26.63
2018-02-05T03:41:07.172Z,27.27
2018-02-05T03:43:36.056Z,26.77
2018-02-05T03:46:04.934Z,28.83
2018-02-05T03:48:33.806Z,25.63
2018-02-05T03:51:02.754Z,29.37
2018-02-05T03:53:31.602Z,32.60
2018-02-05T03:56:00.470Z,28.83
2018-02-05T03:58:29.322Z,29.10
2018-02-05T04:00:58.196Z,33.87
2018-02-05T04:03:27.988Z,28.23
2018-02-05T04:05:57.588Z,32.40
2018-02-05T04:08:26.458Z,27.13
2018-02-05T04:10:55.324Z,30.43
2018-02-05T04:13:24.180Z,30.40
2018-02-05T04:15:53.022Z,30.00
2018-02-05T04:18:21.873Z,35.93
2018-02-05T04:20:50.696Z,30.43
2018-02-05T04:23:19.582Z,30.07
2018-02-05T04:25:48.432Z,31.33
2018-02-05T04:28:17.269Z,33.17
2018-02-05T04:30:46.168Z,32.80
2018-02-05T04:33:14.999Z,34.87
2018-02-05T04:35:43.858Z,31.57
2018-02-05T04:38:12.876Z,33.07
2018-02-05T04:40:41.730Z,33.13
2018-02-05T04:43:10.622Z,32.17
2018-02-05T04:45:39.480Z,33.90
2018-02-05T04:48:08.322Z,33.93
2018-02-05T04:50:37.226Z,35.47
2018-02-05T04:53:06.072Z,33.33
2018-02-05T04:55:34.925Z,36.83
2018-02-05T04:58:03.876Z,33.53
2018-02-05T05:00:32.721Z,36.33
2018-02-05T05:03:01.559Z,37.63
2018-02-05T05:05:31.398Z,37.80
2018-02-05T05:08:00.240Z,34.63
2018-02-05T05:10:29.074Z,35.00
2018-02-05T05:12:58.656Z,37.67
2018-02-05T05:15:27.522Z,31.00
2018-02-05T05:17:56.371Z,32.97
2018-02-05T05:20:26.203Z,35.43
2018-02-05T05:22:55.377Z,30.60
2018-02-05T05:25:24.230Z,38.23
2018-02-05T05:27:53.083Z,34.87
2018-02-05T05:30:21.924Z,32.77
2018-02-05T05:32:50.902Z,31.50
2018-02-05T05:35:19.740Z,38.63
2018-02-05T05:37:48.590Z,31.83
2018-02-05T05:40:17.462Z,34.83
2018-02-05T05:42:46.292Z,38.30
2018-02-05T05:45:16.168Z,37.67
2018-02-05T05:47:45.027Z,33.60
2018-02-05T05:50:13.901Z,35.53
2018-02-05T05:52:43.651Z,34.87
2018-02-05T05:55:12.512Z,36.87
2018-02-05T05:57:41.356Z,36.13
2018-02-05T06:00:10.961Z,37.77
2018-02-05T06:02:40.021Z,35.73
2018-02-05T06:05:08.871Z,36.87
2018-02-05T06:07:38.400Z,35.33
2018-02-05T06:10:08.226Z,37.60
2018-02-05T06:12:37.057Z,36.70
2018-02-05T06:15:06.271Z,37.03
2018-02-05T06:17:35.102Z,38.80
2018-02-05T06:20:03.959Z,35.30
2018-02-05T06:22:32.878Z,39.57
2018-02-05T06:25:01.771Z,36.17
2018-02-05T06:27:30.640Z,39.77
2018-02-05T06:29:59.496Z,37.83
2018-02-05T06:32:28.342Z,36.53
2018-02-05T06:34:57.233Z,34.50
2018-02-05T06:37:26.073Z,35.40
2018-02-05T06:39:54.930Z,38.00
2018-02-05T06:42:23.787Z,32.77
2018-02-05T06:44:53.499Z,36.13
2018-02-05T06:47:22.342Z,36.57
2018-02-05T06:49:51.219Z,35.70
2018-02-05T06:52:25.950Z,33.87
2018-02-05T06:55:00.695Z,35.93
2018-02-05T06:57:29.574Z,36.57
2018-02-05T06:59:58.429Z,31.60
2018-02-05T07:02:27.300Z,34.33
2018-02-05T07:04:56.150Z,33.60
2018-02-05T07:07:25.067Z,33.80
2018-02-05T07:09:53.935Z,32.97
2018-02-05T07:12:22.780Z,37.00
2018-02-05T07:14:51.628Z,34.63
2018-02-05T07:17:20.749Z,30.27
2018-02-05T07:19:49.819Z,35.60
2018-02-05T07:22:18.677Z,32.93
2018-02-05T07:24:47.561Z,35.70
2018-02-05T07:27:16.403Z,35.50
2018-02-05T07:29:45.243Z,32.83
2018-02-05T07:32:14.147Z,32.27
2018-02-05T07:34:43.587Z,30.63
2018-02-05T07:37:12.431Z,37.40
2018-02-05T07:39:41.311Z,34.90
2018-02-05T07:42:10.229Z,30.40
2018-02-05T07:44:39.082Z,32.93
2018-02-05T07:47:08.001Z,33.97
2018-02-05T07:49:36.883Z,33.50
2018-02-05T07:52:05.791Z,30.57
2018-02-05T07:54:34.668Z,29.77
2018-02-05T07:57:04.245Z,33.33
2018-02-05T07:59:33.085Z,29.10
2018-02-05T08:02:01.969Z,29.60
2018-02-05T08:04:30.819Z,31.83
2018-02-05T08:06:59.662Z,33.37
2018-02-05T08:09:28.621Z,28.40
2018-02-05T08:11:57.453Z,30.43
2018-02-05T08:14:26.303Z,28.53
2018-02-05T08:16:55.221Z,28.37
2018-02-05T08:19:24.408Z,26.30
2018-02-05T08:21:53.239Z,24.40
2018-02-05T08:24:22.107Z,26.13
2018-02-05T08:26:50.944Z,22.47
2018-02-05T08:29:20.553Z,26.27
2018-02-05T08:31:50.517Z,25.40
2018-02-05T08:34:19.361Z,22.80
2018-02-05T08:36:48.243Z,23.80
2018-02-05T08:39:17.117Z,22.10
2018-02-05T08:41:45.970Z,18.33
2018-02-05T08:44:14.812Z,21.00
2018-02-05T08:46:43.663Z,16.50
2018-02-05T08:49:12.499Z,19.10
2018-02-05T08:51:41.478Z,19.80
2018-02-05T08:54:10.347Z,18.23
2018-02-05T08:56:39.184Z,19.03
2018-02-05T08:59:08.037Z,18.43
2018-02-05T09:01:37.845Z,20.40
2018-02-05T09:04:07.675Z,23.77
2018-02-05T09:06:36.517Z,17.67
2018-02-05T09:09:05.411Z,17.27
2018-02-05T09:11:34.277Z,17.07
2018-02-05T09:14:03.122Z,16.47
2018-02-05T09:16:32.033Z,17.90
2018-02-05T09:19:00.897Z,19.20
2018-02-05T09:21:29.750Z,22.00
2018-02-05T09:23:58.625Z,16.30
2018-02-05T09:26:27.467Z,17.97
2018-02-05T09:28:56.311Z,18.70
2018-02-05T09:31:25.209Z,17.30
2018-02-05T09:33:54.062Z,19.43
2018-02-05T09:36:22.955Z,16.30
2018-02-05T09:38:51.843Z,17.47
2018-02-05T09:41:21.559Z,16.17
2018-02-05T09:43:50.403Z,17.67
2018-02-05T09:46:19.319Z,15.67
2018-02-05T09:48:48.157Z,17.57
2018-02-05T09:51:17.941Z,14.10
2018-02-05T09:53:46.971Z,17.37
2018-02-05T09:56:15.811Z,16.37
2018-02-05T09:58:44.656Z,15.80
2018-02-05T10:01:14.159Z,16.40
2018-02-05T10:03:43.053Z,15.17
2018-02-05T10:06:11.916Z,14.20
2018-02-05T10:08:41.484Z,11.73
2018-02-05T10:11:10.335Z,13.43
2018-02-05T10:13:39.167Z,13.80
2018-02-05T10:16:08.067Z,13.67
2018-02-05T10:18:36.909Z,14.20
2018-02-05T10:21:05.758Z,14.67
2018-02-05T10:23:34.617Z,13.23
2018-02-05T10:26:04.201Z,12.17
2018-02-05T10:28:33.057Z,13.07
2018-02-05T10:31:01.937Z,11.50
2018-02-05T10:33:30.839Z,16.63
2018-02-05T10:36:00.725Z,14.43
2018-02-05T10:38:29.583Z,12.57
2018-02-05T10:40:58.606Z,13.77
2018-02-05T10:43:27.467Z,14.53
2018-02-05T10:45:56.341Z,13.27
2018-02-05T10:48:25.205Z,12.57
2018-02-05T10:50:54.068Z,12.60
2018-02-05T10:53:23.468Z,12.73
2018-02-05T10:55:52.347Z,13.67
2018-02-05T10:58:21.215Z,12.23
2018-02-05T11:00:50.072Z,11.23
2018-02-05T11:03:18.924Z,12.03
2018-02-05T11:05:48.528Z,13.53
2018-02-05T11:08:17.371Z,11.43
2018-02-05T11:10:47.031Z,12.17
2018-02-05T11:13:15.911Z,11.73
2018-02-05T11:15:44.743Z,10.50
2018-02-05T11:18:13.626Z,11.53
2018-02-05T11:20:42.487Z,12.43
2018-02-05T11:23:11.333Z,11.50
2018-02-05T11:25:40.168Z,10.23
2018-02-05T11:28:09.041Z,9.60
2018-02-05T11:30:37.908Z,11.20
2018-02-05T11:33:06.868Z,10.73
2018-02-05T11:35:35.735Z,10.70
2018-02-05T11:38:04.628Z,11.73
2018-02-05T11:40:33.471Z,13.67
2018-02-05T11:43:02.368Z,11.00
2018-02-05T11:45:32.119Z,10.67
2018-02-05T11:48:00.987Z,9.60
2018-02-05T11:50:30.314Z,10.37
2018-02-05T11:52:59.151Z,10.30
2018-02-05T11:55:28.012Z,11.13
2018-02-05T11:57:56.878Z,9.53
2018-02-05T12:00:25.813Z,9.50
2018-02-05T12:02:55.384Z,10.60
2018-02-05T12:05:24.257Z,10.30
2018-02-05T12:07:53.086Z,10.37
2018-02-05T12:10:21.922Z,8.77
2018-02-05T12:12:50.848Z,10.57
2018-02-05T12:15:19.682Z,9.23
2018-02-05T12:17:48.520Z,9.70
2018-02-05T12:20:17.387Z,13.90
2018-02-05T12:22:46.290Z,9.90
2018-02-05T12:25:15.132Z,8.87
2018-02-05T12:27:43.991Z,11.40
2018-02-05T12:30:12.819Z,10.17
2018-02-05T12:32:41.647Z,7.90
2018-02-05T12:35:10.584Z,9.30
2018-02-05T12:37:39.396Z,10.97
2018-02-05T12:40:08.256Z,9.80
2018-02-05T12:42:37.124Z,10.53
2018-02-05T12:45:05.972Z,9.77
2018-02-05T12:47:34.830Z,8.77
2018-02-05T12:50:04.368Z,9.73
2018-02-05T12:52:33.208Z,9.27
2018-02-05T12:55:02.060Z,11.07
2018-02-05T12:57:30.988Z,11.17
2018-02-05T13:00:14.724Z,8.93
2018-02-05T13:02:46.236Z,9.57
2018-02-05T13:05:19.373Z,8.80
2018-02-05T13:07:49.220Z,9.53
2018-02-05T13:10:18.069Z,9.33
2018-02-05T13:12:46.946Z,10.70
2018-02-05T13:15:15.878Z,9.87
2018-02-05T13:17:44.706Z,11.10
2018-02-05T13:20:13.552Z,9.23
2018-02-05T13:22:42.404Z,8.93
2018-02-05T13:25:11.266Z,10.47
2018-02-05T13:27:40.104Z,11.43
2018-02-05T13:30:09.504Z,10.07
2018-02-05T13:32:38.388Z,10.80
2018-02-05T13:35:07.296Z,9.53
2018-02-05T13:37:36.151Z,10.97
2018-02-05T13:40:05.002Z,11.17
2018-02-05T13:42:34.647Z,11.17
2018-02-05T13:45:04.290Z,10.83
2018-02-05T13:47:33.122Z,11.83
2018-02-05T13:50:01.966Z,10.07
2018-02-05T13:52:30.987Z,11.37
2018-02-05T13:54:59.862Z,11.60
2018-02-05T13:57:28.708Z,10.77
2018-02-05T13:59:57.603Z,10.43
2018-02-05T14:02:26.444Z,9.97
2018-02-05T14:04:55.339Z,11.13
2018-02-05T14:07:24.196Z,11.30
2018-02-05T14:09:53.050Z,13.17
2018-02-05T14:12:21.911Z,11.80
2018-02-05T14:14:50.830Z,13.67
2018-02-05T14:17:20.300Z,14.40
2018-02-05T14:19:49.138Z,12.03
2018-02-05T14:22:18.015Z,12.03
2018-02-05T14:24:46.860Z,14.37
2018-02-05T14:27:15.696Z,12.80
2018-02-05T14:29:44.546Z,10.93
2018-02-05T14:32:13.376Z,14.53
2018-02-05T14:34:42.213Z,11.97
2018-02-05T14:37:11.113Z,13.50
2018-02-05T14:39:39.965Z,11.83
2018-02-05T14:42:08.816Z,12.17
2018-02-05T14:44:37.684Z,13.63
2018-02-05T14:47:06.542Z,13.50
2018-02-05T14:49:35.372Z,11.83
2018-02-05T14:52:04.252Z,12.37
2018-02-05T14:54:33.107Z,13.23
2018-02-05T14:57:02.079Z,11.17
2018-02-05T14:59:30.942Z,11.83
2018-02-05T15:02:00.442Z,13.37
2018-02-05T15:04:29.328Z,11.73
2018-02-05T15:06:58.204Z,13.10
2018-02-05T15:09:27.046Z,12.87
2018-02-05T15:11:55.892Z,12.53
2018-02-05T15:14:24.759Z,14.37
2018-02-05T15:16:54.079Z,12.23
2018-02-05T15:19:22.912Z,14.77
2018-02-05T15:21:51.848Z,14.33
2018-02-05T15:24:20.702Z,11.43
2018-02-05T15:26:49.544Z,13.47
2018-02-05T15:29:18.434Z,14.67
2018-02-05T15:31:47.265Z,13.33
2018-02-05T15:34:16.099Z,14.03
2018-02-05T15:36:45.012Z,13.23
2018-02-05T15:39:14.894Z,12.60
2018-02-05T15:41:43.744Z,11.07
2018-02-05T15:44:12.808Z,12.67
2018-02-05T15:46:41.659Z,13.73
2018-02-05T15:49:10.554Z,12.10
2018-02-05T15:51:40.096Z,14.00
2018-02-05T15:54:08.960Z,11.87
2018-02-05T15:56:37.821Z,14.10
2018-02-05T15:59:06.684Z,11.57
2018-02-05T16:01:36.288Z,10.70
2018-02-05T16:04:05.163Z,12.10
2018-02-05T16:06:35.126Z,12.33
2018-02-05T16:09:04.007Z,11.50
2018-02-05T16:11:32.872Z,12.10
2018-02-05T16:14:01.719Z,16.63
2018-02-05T16:16:31.300Z,13.30
2018-02-05T16:19:01.871Z,13.53
2018-02-05T16:21:31.721Z,11.20
2018-02-05T16:24:01.846Z,13.40
2018-02-05T16:26:31.416Z,13.70
2018-02-05T16:29:00.275Z,13.23
2018-02-05T16:31:29.154Z,13.43
2018-02-05T16:33:58.037Z,14.83
2018-02-05T16:36:26.874Z,13.87
2018-02-05T16:38:55.790Z,14.27
2018-02-05T16:41:25.514Z,15.10
2018-02-05T16:43:54.515Z,16.33
2018-02-05T16:46:24.230Z,15.13
2018-02-05T16:48:53.674Z,15.80
2018-02-05T16:51:22.518Z,15.23
2018-02-05T16:53:51.431Z,17.23
2018-02-05T16:56:20.438Z,15.27
2018-02-05T16:58:52.275Z,18.73
2018-02-05T17:01:22.218Z,16.87
2018-02-05T17:03:54.346Z,17.63
2018-02-05T17:06:23.201Z,16.57
2018-02-05T17:11:27.293Z,17.83
2018-02-05T17:13:56.149Z,19.27
2018-02-05T17:16:25.930Z,19.83
2018-02-05T17:18:55.540Z,23.30
2018-02-05T17:21:24.935Z,18.80
2018-02-05T17:23:54.725Z,17.97
2018-02-05T17:29:06.141Z,17.03
2018-02-05T17:31:35.976Z,17.40
2018-02-05T17:34:07.455Z,20.10
2018-02-05T17:36:36.506Z,19.03
2018-02-05T17:39:05.365Z,18.40
2018-02-05T17:41:34.205Z,61.30
2018-02-05T17:44:03.099Z,34.17
2018-02-05T17:46:31.954Z,22.73
2018-02-05T17:49:00.797Z,20.57
2018-02-05T17:51:29.679Z,16.33
2018-02-05T17:53:58.540Z,21.13
2018-02-05T17:56:27.374Z,18.30
2018-02-05T17:58:56.359Z,20.23
2018-02-05T18:01:25.203Z,17.27
2018-02-05T18:03:54.061Z,16.63
2018-02-05T18:06:22.935Z,21.40
2018-02-05T18:08:51.805Z,18.73
2018-02-05T18:11:20.727Z,18.03
2018-02-05T18:13:49.635Z,19.53
2018-02-05T18:16:19.391Z,18.13
2018-02-05T18:18:48.235Z,20.70
2018-02-05T18:21:17.455Z,20.87
2018-02-05T18:23:46.288Z,18.77
2018-02-05T18:26:15.141Z,18.30
2018-02-05T18:28:44.829Z,19.93
2018-02-05T18:31:13.665Z,20.00
2018-02-05T18:33:42.528Z,17.47
2018-02-05T18:36:11.475Z,18.93
2018-02-05T18:38:40.323Z,18.73
2018-02-05T18:41:09.181Z,20.60
2018-02-05T18:43:38.095Z,19.23
2018-02-05T18:46:06.978Z,18.03
2018-02-05T18:48:35.823Z,20.33
2018-02-05T18:51:04.716Z,19.33
2018-02-05T18:53:33.565Z,20.17
2018-02-05T18:56:02.467Z,22.27
2018-02-05T18:58:31.329Z,19.63
2018-02-05T19:01:00.167Z,19.93
2018-02-05T19:03:29.017Z,19.60
2018-02-05T19:05:58.033Z,22.27
2018-02-05T19:08:27.171Z,24.97
2018-02-05T19:10:56.011Z,20.37
2018-02-05T19:13:24.874Z,17.03
2018-02-05T19:15:53.719Z,20.83
2018-02-05T19:18:22.555Z,19.63
2018-02-05T19:20:51.411Z,20.33
2018-02-05T19:23:20.257Z,19.30
2018-02-05T19:25:49.113Z,22.17
2018-02-05T19:28:17.984Z,20.83
2018-02-05T19:30:46.835Z,20.63
2018-02-05T19:33:15.913Z,22.80
2018-02-05T19:35:44.793Z,21.97
2018-02-05T19:38:13.749Z,18.37
2018-02-05T19:40:42.583Z,20.07
2018-02-05T19:43:11.505Z,22.60
2018-02-05T19:45:40.437Z,21.63
2018-02-05T19:48:09.291Z,22.30
2018-02-05T19:50:39.049Z,26.53
2018-02-05T19:53:07.921Z,24.37
2018-02-05T19:55:36.791Z,23.57
2018-02-05T19:58:05.700Z,21.90
2018-02-05T20:00:34.527Z,24.07
2018-02-05T20:03:03.925Z,20.40
2018-02-05T20:05:32.807Z,21.03
2018-02-05T20:08:01.651Z,20.20
2018-02-05T20:10:30.564Z,24.37
2018-02-05T20:13:00.069Z,22.73
2018-02-05T20:15:28.906Z,25.00
2018-02-05T20:17:57.798Z,26.13
2018-02-05T20:20:26.661Z,23.97
2018-02-05T20:22:55.533Z,18.17
2018-02-05T20:25:24.398Z,23.73
2018-02-05T20:27:53.244Z,21.17
2018-02-05T20:30:22.080Z,20.70
2018-02-05T20:32:50.977Z,17.73
2018-02-05T20:35:19.835Z,23.93
2018-02-05T20:37:48.667Z,24.03
2018-02-05T20:40:17.563Z,19.70
2018-02-05T20:42:47.609Z,23.73
2018-02-05T20:45:16.456Z,19.73
2018-02-05T20:47:45.905Z,19.67
2018-02-05T20:50:15.509Z,20.20
2018-02-05T20:52:44.376Z,20.33
2018-02-05T20:55:13.245Z,23.17
2018-02-05T20:57:42.099Z,20.97
2018-02-05T21:00:12.351Z,21.47
2018-02-05T21:02:41.242Z,22.27
2018-02-05T21:05:10.095Z,18.53
2018-02-05T21:07:39.625Z,27.30
2018-02-05T21:10:08.538Z,21.90
2018-02-05T21:12:37.428Z,22.93
2018-02-05T21:15:06.240Z,22.20
2018-02-05T21:17:35.115Z,23.67
2018-02-05T21:20:03.961Z,26.57
2018-02-05T21:22:33.031Z,33.33
2018-02-05T21:25:01.912Z,27.50
2018-02-05T21:27:31.459Z,27.60
2018-02-05T21:30:00.324Z,30.00
2018-02-05T21:32:33.377Z,27.93
2018-02-05T21:35:02.234Z,28.53
2018-02-05T21:37:31.101Z,22.70
2018-02-05T21:40:02.272Z,26.97
2018-02-05T21:45:32.991Z,24.47
2018-02-05T21:48:02.597Z,27.10
2018-02-05T21:50:32.001Z,27.43
2018-02-05T21:53:00.877Z,39.13
2018-02-05T21:55:35.274Z,26.60
2018-02-05T21:58:08.694Z,28.40
2018-02-05T22:00:37.572Z,27.60
2018-02-05T22:03:06.869Z,28.23
2018-02-05T22:05:36.259Z,24.13
2018-02-05T22:08:12.310Z,28.87
2018-02-05T22:10:41.215Z,24.53
2018-02-05T22:13:11.202Z,25.57
2018-02-05T22:15:40.062Z,26.87
2018-02-05T22:18:09.859Z,28.10
2018-02-05T22:20:46.098Z,26.53
2018-02-05T22:23:14.994Z,24.83
2018-02-05T22:25:43.854Z,25.37
2018-02-05T22:28:12.692Z,30.07
2018-02-05T22:30:41.550Z,26.90
2018-02-05T22:33:10.956Z,27.43
2018-02-05T22:35:39.852Z,25.87
2018-02-05T22:38:09.528Z,26.80
2018-02-05T22:40:38.395Z,28.53
2018-02-05T22:43:07.238Z,26.23
2018-02-05T22:45:36.094Z,28.90
2018-02-05T22:48:04.996Z,24.53
2018-02-05T22:50:33.868Z,28.20
2018-02-05T22:53:02.709Z,32.67
2018-02-05T22:55:31.600Z,24.53
2018-02-05T22:58:00.460Z,24.83
2018-02-05T23:00:29.314Z,22.03
2018-02-05T23:02:58.947Z,27.47
2018-02-05T23:05:27.805Z,26.37
2018-02-05T23:07:56.643Z,27.80
2018-02-05T23:10:25.556Z,30.23
2018-02-05T23:12:54.942Z,23.30
2018-02-05T23:15:23.774Z,31.67
2018-02-05T23:17:54.437Z,22.07
2018-02-05T23:20:23.278Z,27.30
2018-02-05T23:22:52.162Z,27.60
2018-02-05T23:25:21.008Z,24.63
2018-02-05T23:27:50.460Z,26.57
2018-02-05T23:30:19.308Z,31.40
2018-02-05T23:32:48.425Z,27.07
2018-02-05T23:35:17.272Z,26.73
2018-02-05T23:37:46.798Z,29.90
2018-02-05T23:40:15.634Z,26.67
2018-02-05T23:42:44.488Z,29.57
2018-02-05T23:45:13.324Z,23.70
2018-02-05T23:47:42.192Z,25.03
2018-02-05T23:50:11.681Z,28.23
2018-02-05T23:52:40.699Z,26.40
2018-02-05T23:55:09.568Z,22.30
2018-02-05T23:57:38.406Z,30.27
